Time;durP1;ratioP1;P1;durP2;ratioP2;P2;SDS_P1;SDS_P2;PMS_P1;PMS_P2;Temp;Humidity;BMP_temperature;BMP_pressure;BME280_temperature;BME280_humidity;BME280_pressure;Samples;Min_cycle;Max_cycle;Signal;HPM_P1;HPM_P2
2022/11/19 00:01:06;;;;;;;3.20;1.30;;;;;;;6.87;nan;97214.19;5052648;28;20232;-70
2022/11/19 00:03:34;;;;;;;2.77;1.37;;;;;;;6.84;nan;97211.19;5053020;28;20205;-70
2022/11/19 00:06:07;;;;;;;2.50;1.60;;;;;;;6.86;nan;97217.06;5053220;28;20215;-70
2022/11/19 00:08:33;;;;;;;4.70;1.60;;;;;;;6.95;nan;97213.13;5052679;28;20204;-70
2022/11/19 00:11:14;;;;;;;2.60;1.57;;;;;;;6.90;nan;97208.50;5052527;28;20236;-70
2022/11/19 00:13:41;;;;;;;1.70;1.50;;;;;;;6.91;nan;97214.56;5052949;28;20204;-70
2022/11/19 00:16:13;;;;;;;2.00;1.40;;;;;;;6.94;nan;97211.50;5052502;28;20217;-70
2022/11/19 00:18:41;;;;;;;2.03;1.50;;;;;;;6.93;nan;97217.81;5053044;28;20584;-70
2022/11/19 00:21:11;;;;;;;2.07;1.47;;;;;;;6.95;nan;97213.13;5052749;28;20224;-70
2022/11/19 00:23:38;;;;;;;1.27;1.07;;;;;;;6.94;nan;97204.41;5053223;28;20200;-70
2022/11/19 00:26:05;;;;;;;1.40;1.00;;;;;;;6.96;nan;97206.78;5052813;28;20549;-70
2022/11/19 00:28:31;;;;;;;4.57;1.40;;;;;;;6.97;nan;97208.44;5052742;28;20641;-70
2022/11/19 00:31:06;;;;;;;1.90;1.33;;;;;;;6.96;nan;97201.50;5053339;28;20320;-70
2022/11/19 00:33:34;;;;;;;1.53;1.07;;;;;;;6.98;nan;97197.66;5053356;28;20213;-70
2022/11/19 00:36:01;;;;;;;2.73;1.33;;;;;;;6.97;nan;97196.03;5053013;28;20208;-70
2022/11/19 00:38:29;;;;;;;1.73;1.03;;;;;;;6.99;nan;97198.44;5052722;28;20220;-70
2022/11/19 00:40:55;;;;;;;2.17;1.13;;;;;;;7.01;nan;97194.56;5052918;28;20312;-70
2022/11/19 00:46:06;;;;;;;3.13;1.53;;;;;;;6.89;nan;97198.13;5052776;28;20251;-70
2022/11/19 00:48:33;;;;;;;2.17;1.10;;;;;;;6.94;nan;97193.00;5053952;28;20209;-70
2022/11/19 00:51:00;;;;;;;1.17;1.07;;;;;;;6.85;nan;97194.31;5056448;28;20228;-70
2022/11/19 00:53:26;;;;;;;1.73;1.37;;;;;;;6.88;nan;97193.88;5056241;28;20212;-70
2022/11/19 00:55:53;;;;;;;1.13;1.03;;;;;;;6.88;nan;97199.16;5056563;28;20300;-70
2022/11/19 00:58:20;;;;;;;1.67;1.13;;;;;;;6.93;nan;97191.41;5056568;28;20296;-70
2022/11/19 01:00:47;;;;;;;3.23;1.60;;;;;;;6.96;nan;97201.50;5056379;28;20233;-70
2022/11/19 01:03:13;;;;;;;4.23;1.50;;;;;;;6.90;nan;97192.66;5056164;28;20309;-70
2022/11/19 01:05:40;;;;;;;2.60;1.60;;;;;;;6.90;nan;97194.47;5056248;28;20205;-70
2022/11/19 01:08:06;;;;;;;1.90;1.50;;;;;;;6.89;nan;97192.84;5056192;28;20296;-70
2022/11/19 01:10:34;;;;;;;2.00;1.30;;;;;;;6.84;nan;97190.06;5055965;28;20228;-70
2022/11/19 01:15:49;;;;;;;3.17;1.90;;;;;;;6.86;nan;97191.44;5056192;28;20231;-70
2022/11/19 01:18:17;;;;;;;2.63;1.40;;;;;;;6.77;nan;97192.75;5056101;28;20219;-70
2022/11/19 01:20:44;;;;;;;2.90;1.70;;;;;;;6.78;nan;97191.72;5056110;28;20235;-70
2022/11/19 01:23:11;;;;;;;2.97;1.80;;;;;;;6.79;nan;97193.31;5055846;28;20213;-70
2022/11/19 01:25:37;;;;;;;2.40;1.90;;;;;;;6.85;nan;97202.22;5055961;28;20227;-70
2022/11/19 01:28:04;;;;;;;2.43;1.37;;;;;;;6.80;nan;97205.53;5055696;28;20206;-70
2022/11/19 01:30:31;;;;;;;2.33;1.80;;;;;;;6.74;nan;97202.94;5055875;28;20226;-70
2022/11/19 01:32:58;;;;;;;1.90;1.17;;;;;;;6.72;nan;97207.63;5055661;28;20225;-70
2022/11/19 01:35:24;;;;;;;2.17;1.37;;;;;;;6.68;nan;97207.25;5055828;28;20212;-70
2022/11/19 01:37:51;;;;;;;1.97;1.23;;;;;;;6.65;nan;97206.88;5055450;28;20664;-70
2022/11/19 01:40:18;;;;;;;1.70;1.27;;;;;;;6.65;nan;97198.94;5055676;28;20545;-70
2022/11/19 01:42:50;;;;;;;1.60;1.20;;;;;;;6.69;nan;97203.56;5055709;28;20292;-70
2022/11/19 01:45:44;;;;;;;1.37;1.27;;;;;;;6.66;nan;97197.91;5055958;28;20197;-70
2022/11/19 01:48:22;;;;;;;3.37;1.30;;;;;;;6.57;nan;97193.94;5055722;28;20193;-70
2022/11/19 01:50:59;;;;;;;1.67;1.00;;;;;;;6.48;nan;97192.56;5055509;28;20247;-70
2022/11/19 01:53:29;;;;;;;3.43;1.00;;;;;;;6.49;nan;97196.81;5055401;28;20189;-71
2022/11/19 01:56:02;;;;;;;1.80;0.90;;;;;;;6.45;nan;97198.25;5055169;28;20192;-70
2022/11/19 01:58:36;;;;;;;0.93;0.90;;;;;;;6.38;nan;97200.94;5055430;28;20312;-70
2022/11/19 02:01:02;;;;;;;3.33;1.17;;;;;;;6.41;nan;97205.00;5054492;28;20288;-70
2022/11/19 02:03:30;;;;;;;1.40;1.20;;;;;;;6.36;nan;97205.66;5055049;28;20216;-70
2022/11/19 02:06:00;;;;;;;3.63;1.30;;;;;;;6.35;nan;97197.94;5055301;28;20213;-70
2022/11/19 02:08:44;;;;;;;1.00;0.97;;;;;;;6.32;nan;97211.53;5055450;28;20239;-70
2022/11/19 02:11:14;;;;;;;1.03;0.90;;;;;;;6.30;nan;97216.25;5055044;28;20227;-70
2022/11/19 02:13:49;;;;;;;1.03;0.80;;;;;;;6.26;nan;97212.41;5055115;28;20300;-70
2022/11/19 02:16:30;;;;;;;1.83;1.10;;;;;;;6.26;nan;97212.41;5055055;28;20197;-70
2022/11/19 02:19:21;;;;;;;1.30;0.90;;;;;;;6.14;nan;97209.63;5053903;28;20196;-70
2022/11/19 02:22:08;;;;;;;2.17;1.00;;;;;;;6.22;nan;97208.56;5053566;28;20255;-70
2022/11/19 02:24:42;;;;;;;1.77;1.40;;;;;;;6.19;nan;97209.81;5054900;28;20189;-70
2022/11/19 02:27:14;;;;;;;3.50;1.30;;;;;;;6.22;nan;97212.03;5054863;28;20184;-70
2022/11/19 02:29:51;;;;;;;1.77;1.23;;;;;;;6.23;nan;97212.81;5054526;28;20664;-70
2022/11/19 02:32:27;;;;;;;2.57;1.60;;;;;;;6.28;nan;97210.34;5053391;28;20221;-70
2022/11/19 02:35:00;;;;;;;1.77;1.10;;;;;;;6.34;nan;97222.72;5054728;28;20196;-70
2022/11/19 02:37:36;;;;;;;2.47;1.30;;;;;;;6.40;nan;97219.22;5054657;28;20196;-70
2022/11/19 02:40:26;;;;;;;3.87;1.30;;;;;;;6.43;nan;97211.69;5054574;28;20203;-71
2022/11/19 02:43:40;;;;;;;1.50;1.37;;;;;;;6.44;nan;97217.78;5054170;28;20205;-70
2022/11/19 02:46:14;;;;;;;2.80;1.43;;;;;;;6.45;nan;97222.03;5044829;28;20211;-70
2022/11/19 02:48:46;;;;;;;2.17;1.37;;;;;;;6.48;nan;97211.06;5053595;28;20194;-70
2022/11/19 02:51:15;;;;;;;1.67;1.30;;;;;;;6.49;nan;97215.31;5054204;28;20319;-70
2022/11/19 02:53:41;;;;;;;3.83;1.60;;;;;;;6.53;nan;97208.56;5054323;28;20201;-70
2022/11/19 02:56:12;;;;;;;3.13;1.67;;;;;;;6.57;nan;97220.34;5054287;28;20205;-70
2022/11/19 03:04:31;;;;;;;2.17;1.00;;;;;;;6.63;nan;97220.28;5054286;28;20188;-70
2022/11/19 03:07:12;;;;;;;2.83;1.10;;;;;;;6.68;nan;97222.28;5053851;28;20656;-70
2022/11/19 03:09:43;;;;;;;0.90;0.83;;;;;;;6.69;nan;97229.19;5053858;28;20743;-70
2022/11/19 03:12:13;;;;;;;1.10;1.00;;;;;;;6.71;nan;97227.13;5053794;28;20283;-71
2022/11/19 03:18:14;;;;;;;1.30;0.97;;;;;;;6.69;nan;97234.47;5054065;28;20172;-70
2022/11/19 03:21:18;;;;;;;1.90;1.00;;;;;;;6.59;nan;97228.84;5047152;28;20232;-70
2022/11/19 03:23:53;;;;;;;1.17;1.07;;;;;;;6.61;nan;97232.09;5019693;28;20204;-70
2022/11/19 03:26:41;;;;;;;1.93;1.10;;;;;;;6.66;nan;97229.63;5053854;28;20201;-70
2022/11/19 03:29:11;;;;;;;1.27;1.00;;;;;;;6.75;nan;97236.25;5053487;28;20661;-71
2022/11/19 03:31:40;;;;;;;1.30;1.13;;;;;;;6.79;nan;97232.16;5053858;28;20229;-70
2022/11/19 03:34:18;;;;;;;2.20;1.10;;;;;;;6.87;nan;97242.47;5053673;28;20550;-70
2022/11/19 03:36:46;;;;;;;1.20;1.10;;;;;;;6.87;nan;97237.19;5053269;28;20655;-70
2022/11/19 03:39:18;;;;;;;2.73;1.03;;;;;;;6.87;nan;97232.69;5053249;28;20675;-70
2022/11/19 03:41:48;;;;;;;3.30;1.40;;;;;;;6.90;nan;97237.56;5053574;28;20221;-71
2022/11/19 03:44:33;;;;;;;1.20;1.10;;;;;;;6.89;nan;97235.94;5053516;28;20219;-70
2022/11/19 03:47:04;;;;;;;1.50;1.20;;;;;;;6.90;nan;97237.56;5053869;28;20190;-70
2022/11/19 03:49:37;;;;;;;1.53;1.20;;;;;;;6.89;nan;97240.41;5053323;28;20186;-70
2022/11/19 03:52:13;;;;;;;2.47;1.13;;;;;;;6.95;nan;97244.81;5053405;28;20316;-70
2022/11/19 03:54:41;;;;;;;2.90;1.07;;;;;;;6.90;nan;97250.75;5052307;28;20196;-70
2022/11/19 03:57:10;;;;;;;2.07;1.00;;;;;;;6.87;nan;97259.13;5053409;28;20205;-70
2022/11/19 03:59:37;;;;;;;1.20;1.10;;;;;;;6.88;nan;97259.94;5053124;28;20205;-70
2022/11/19 04:02:07;;;;;;;2.23;1.10;;;;;;;6.88;nan;97259.94;5053347;28;20232;-70
2022/11/19 04:04:37;;;;;;;2.23;1.00;;;;;;;6.89;nan;97259.72;5053382;28;20197;-70
2022/11/19 04:07:14;;;;;;;2.07;1.13;;;;;;;6.82;nan;97250.19;5052971;28;20645;-71
2022/11/19 04:09:41;;;;;;;3.33;1.00;;;;;;;6.80;nan;97250.44;5053305;28;20190;-70
2022/11/19 04:12:14;;;;;;;1.80;1.10;;;;;;;6.83;nan;97257.91;5053041;28;20237;-70
2022/11/19 04:14:40;;;;;;;2.03;1.10;;;;;;;6.89;nan;97254.44;5053334;28;20194;-70
2022/11/19 04:17:07;;;;;;;2.37;1.20;;;;;;;6.89;nan;97258.91;5053205;28;20260;-71
2022/11/19 04:19:33;;;;;;;5.23;1.03;;;;;;;6.96;nan;97257.81;5053355;28;20201;-70
2022/11/19 04:22:00;;;;;;;1.47;1.00;;;;;;;6.92;nan;97253.19;5052882;28;20258;-70
2022/11/19 04:24:26;;;;;;;1.40;0.80;;;;;;;6.95;nan;97255.38;5055526;28;20209;-70
2022/11/19 04:26:52;;;;;;;1.83;1.10;;;;;;;6.95;nan;97252.75;5057094;28;20248;-70
2022/11/19 04:29:19;;;;;;;1.10;1.00;;;;;;;6.90;nan;97253.41;5056786;28;20563;-70
2022/11/19 04:31:45;;;;;;;1.90;1.03;;;;;;;6.88;nan;97249.38;5056909;28;20595;-70
2022/11/19 04:34:12;;;;;;;2.57;1.33;;;;;;;6.83;nan;97244.72;5056964;28;20206;-70
2022/11/19 04:36:40;;;;;;;2.00;1.20;;;;;;;6.82;nan;97250.19;5056620;28;20231;-70
2022/11/19 04:39:07;;;;;;;2.33;1.10;;;;;;;6.80;nan;97247.81;5055381;28;20213;-70
2022/11/19 04:41:34;;;;;;;2.13;1.10;;;;;;;6.80;nan;97249.63;5056286;28;20716;-71
2022/11/19 04:44:00;;;;;;;1.90;1.20;;;;;;;6.79;nan;97250.66;5056557;28;20201;-71
2022/11/19 04:46:27;;;;;;;1.47;1.30;;;;;;;6.77;nan;97250.88;5056589;28;20209;-70
2022/11/19 04:48:53;;;;;;;1.17;1.07;;;;;;;6.81;nan;97257.34;5056602;28;20213;-70
2022/11/19 04:51:19;;;;;;;1.00;1.00;;;;;;;6.83;nan;97259.78;5056412;28;20231;-70
2022/11/19 04:53:46;;;;;;;1.97;1.13;;;;;;;6.84;nan;97258.75;5056458;28;20229;-70
2022/11/19 04:56:12;;;;;;;1.73;1.10;;;;;;;6.82;nan;97266.06;5056615;28;20208;-70
2022/11/19 04:58:39;;;;;;;3.13;1.13;;;;;;;6.85;nan;97266.47;5056539;28;20211;-70
2022/11/19 05:01:06;;;;;;;2.03;1.10;;;;;;;6.83;nan;97271.13;5056671;28;20231;-70
2022/11/19 05:03:32;;;;;;;1.50;1.10;;;;;;;6.82;nan;97263.41;5056139;28;20668;-70
2022/11/19 05:05:59;;;;;;;1.47;1.10;;;;;;;6.79;nan;97263.84;5056021;28;20201;-70
2022/11/19 05:08:25;;;;;;;1.90;1.37;;;;;;;6.78;nan;97257.75;5055993;28;20211;-70
2022/11/19 05:10:52;;;;;;;1.87;1.00;;;;;;;6.74;nan;97261.06;5056020;28;20225;-70
2022/11/19 05:13:18;;;;;;;2.40;1.40;;;;;;;6.77;nan;97261.44;5055751;28;20232;-70
2022/11/19 05:15:45;;;;;;;1.40;1.20;;;;;;;6.81;nan;97254.69;5056046;28;20205;-70
2022/11/19 05:18:13;;;;;;;1.73;1.10;;;;;;;6.83;nan;97257.91;5056101;28;20205;-70
2022/11/19 05:20:39;;;;;;;2.50;1.07;;;;;;;6.84;nan;97261.38;5055639;28;20221;-70
2022/11/19 05:23:06;;;;;;;1.27;1.00;;;;;;;6.80;nan;97262.81;5055469;28;20223;-70
2022/11/19 05:25:32;;;;;;;1.73;1.20;;;;;;;6.84;nan;97254.25;5055947;28;20580;-70
2022/11/19 05:27:58;;;;;;;1.27;1.17;;;;;;;6.87;nan;97255.69;5055509;28;20205;-70
2022/11/19 05:30:25;;;;;;;1.77;1.20;;;;;;;6.83;nan;97257.91;5055212;28;20266;-70
2022/11/19 05:32:51;;;;;;;2.47;1.27;;;;;;;6.87;nan;97255.69;5055152;28;20224;-70
2022/11/19 05:35:17;;;;;;;2.63;1.47;;;;;;;6.76;nan;97253.72;5054080;28;20220;-70
2022/11/19 05:37:44;;;;;;;1.70;1.23;;;;;;;6.75;nan;97252.09;5055139;28;20675;-70
2022/11/19 05:40:10;;;;;;;2.03;1.10;;;;;;;6.77;nan;97261.44;5055572;28;20291;-70
2022/11/19 05:42:37;;;;;;;2.60;1.37;;;;;;;6.81;nan;97259.97;5055593;28;20201;-70
2022/11/19 05:45:03;;;;;;;1.40;1.30;;;;;;;6.84;nan;97256.09;5055608;28;20212;-70
2022/11/19 05:47:30;;;;;;;1.80;1.40;;;;;;;6.87;nan;97263.59;5055613;28;20200;-70
2022/11/19 05:49:56;;;;;;;2.77;1.30;;;;;;;6.89;nan;97262.38;5055478;28;20215;-70
2022/11/19 05:52:22;;;;;;;2.90;1.23;;;;;;;6.89;nan;97261.53;5054967;28;20235;-70
2022/11/19 05:54:49;;;;;;;2.73;1.57;;;;;;;6.89;nan;97257.06;5055321;28;20205;-70
2022/11/19 05:57:15;;;;;;;1.97;1.60;;;;;;;6.90;nan;97261.34;5055218;28;20201;-70
2022/11/19 05:59:41;;;;;;;2.47;1.47;;;;;;;6.88;nan;97259.94;5054874;28;20657;-70
2022/11/19 06:02:08;;;;;;;1.23;1.13;;;;;;;6.83;nan;97263.19;5055292;28;20411;-70
2022/11/19 06:04:34;;;;;;;1.93;1.60;;;;;;;6.79;nan;97266.50;5054994;28;20694;-71
2022/11/19 06:07:01;;;;;;;3.17;1.40;;;;;;;6.80;nan;97276.03;5055187;28;20205;-70
2022/11/19 06:09:27;;;;;;;2.30;1.40;;;;;;;6.78;nan;97272.81;5055351;28;20209;-70
2022/11/19 06:11:53;;;;;;;1.93;1.40;;;;;;;6.78;nan;97278.88;5055026;28;20228;-70
2022/11/19 06:14:22;;;;;;;2.33;1.43;;;;;;;6.73;nan;97277.91;5055677;28;20212;-70
2022/11/19 06:16:53;;;;;;;4.33;1.70;;;;;;;6.73;nan;97278.72;5055091;28;20201;-70
2022/11/19 06:19:20;;;;;;;3.30;1.50;;;;;;;6.69;nan;97280.16;5054912;28;20205;-70
2022/11/19 06:21:46;;;;;;;2.50;1.60;;;;;;;6.71;nan;97282.59;5054732;28;20320;-70
2022/11/19 06:24:13;;;;;;;1.60;1.50;;;;;;;6.56;nan;97280.25;5054583;28;20264;-70
2022/11/19 06:26:40;;;;;;;1.77;1.50;;;;;;;6.61;nan;97287.53;5054827;28;20205;-70
2022/11/19 06:29:07;;;;;;;3.63;1.40;;;;;;;6.53;nan;97282.50;5054750;28;20201;-70
2022/11/19 06:31:34;;;;;;;3.40;1.50;;;;;;;6.42;nan;97286.63;5054521;28;20229;-70
2022/11/19 06:34:00;;;;;;;2.07;1.73;;;;;;;6.45;nan;97290.66;5054387;28;20221;-70
2022/11/19 06:36:27;;;;;;;1.90;1.57;;;;;;;6.47;nan;97293.94;5054479;28;20205;-70
2022/11/19 06:38:53;;;;;;;3.00;1.60;;;;;;;6.47;nan;97300.00;5054333;28;20212;-70
2022/11/19 06:41:20;;;;;;;5.17;1.70;;;;;;;6.48;nan;97295.53;5054435;28;20221;-71
2022/11/19 06:43:46;;;;;;;1.80;1.57;;;;;;;6.51;nan;97309.13;5054417;28;20197;-71
2022/11/19 06:46:13;;;;;;;2.10;1.43;;;;;;;6.57;nan;97310.13;5053865;28;20216;-71
2022/11/19 06:48:40;;;;;;;1.73;1.40;;;;;;;6.64;nan;97310.88;5054394;28;20205;-71
2022/11/19 06:51:07;;;;;;;2.73;1.60;;;;;;;6.64;nan;97310.88;5054064;28;20251;-71
2022/11/19 06:53:34;;;;;;;2.03;1.47;;;;;;;6.68;nan;97318.16;5054206;28;20311;-71
2022/11/19 06:56:04;;;;;;;1.43;1.33;;;;;;;6.72;nan;97314.09;5054214;28;20237;-71
2022/11/19 06:58:31;;;;;;;1.47;1.37;;;;;;;6.68;nan;97320.00;5053731;28;20211;-71
2022/11/19 07:00:58;;;;;;;1.53;1.43;;;;;;;6.70;nan;97320.59;5054048;28;20222;-71
2022/11/19 07:03:25;;;;;;;1.80;1.40;;;;;;;6.66;nan;97322.84;5053814;28;20287;-71
2022/11/19 07:05:56;;;;;;;1.60;1.50;;;;;;;6.72;nan;97327.28;5053996;28;20300;-71
2022/11/19 07:08:23;;;;;;;1.47;1.30;;;;;;;6.72;nan;97326.47;5054013;28;20193;-71
2022/11/19 07:10:50;;;;;;;1.40;1.30;;;;;;;6.74;nan;97325.25;5053941;28;20221;-71
2022/11/19 07:13:16;;;;;;;3.07;1.40;;;;;;;6.76;nan;97325.84;5053767;28;20247;-71
2022/11/19 07:15:43;;;;;;;3.00;1.57;;;;;;;6.73;nan;97336.84;5053895;28;20211;-71
2022/11/19 07:18:09;;;;;;;2.10;1.50;;;;;;;6.69;nan;97333.00;5053531;28;20292;-71
2022/11/19 07:20:36;;;;;;;2.40;1.67;;;;;;;6.69;nan;97340.13;5053444;28;20233;-71
2022/11/19 07:23:02;;;;;;;2.27;1.70;;;;;;;6.67;nan;97327.13;5053584;28;20212;-71
2022/11/19 07:25:28;;;;;;;1.80;1.47;;;;;;;6.60;nan;97334.25;5053648;28;20205;-71
2022/11/19 07:27:55;;;;;;;2.43;1.70;;;;;;;6.61;nan;97338.50;5053379;28;20683;-71
2022/11/19 07:30:21;;;;;;;2.20;1.77;;;;;;;6.65;nan;97338.91;5053515;28;20212;-71
2022/11/19 07:32:48;;;;;;;2.60;1.70;;;;;;;6.60;nan;97344.03;5053600;28;20225;-71
2022/11/19 07:35:14;;;;;;;2.77;1.70;;;;;;;6.60;nan;97338.75;5053104;28;20650;-71
2022/11/19 07:37:41;;;;;;;1.93;1.63;;;;;;;6.63;nan;97338.31;5053250;28;20210;-71
2022/11/19 07:40:09;;;;;;;2.97;1.90;;;;;;;6.72;nan;97347.59;5053362;28;20208;-71
2022/11/19 07:42:50;;;;;;;2.60;1.43;;;;;;;6.78;nan;97349.41;5053350;28;20205;-71
2022/11/19 07:45:19;;;;;;;3.63;1.70;;;;;;;6.82;nan;97355.88;5053460;28;20228;-71
2022/11/19 07:47:45;;;;;;;3.10;1.80;;;;;;;6.83;nan;97355.66;5053169;28;20219;-71
2022/11/19 07:50:12;;;;;;;3.27;1.60;;;;;;;6.97;nan;97359.84;5053349;28;20205;-71
2022/11/19 07:52:38;;;;;;;2.07;1.70;;;;;;;7.05;nan;97361.41;5052907;28;20233;-71
2022/11/19 07:55:05;;;;;;;3.67;1.60;;;;;;;7.12;nan;97352.44;5053383;28;20209;-71
2022/11/19 07:57:32;;;;;;;2.67;1.30;;;;;;;7.20;nan;97359.31;5053007;28;20288;-71
2022/11/19 07:59:58;;;;;;;1.50;1.30;;;;;;;7.24;nan;97352.56;5052966;28;20209;-71
2022/11/19 08:02:25;;;;;;;2.07;1.23;;;;;;;7.32;nan;97354.91;5052986;28;20232;-71
2022/11/19 08:04:51;;;;;;;1.40;1.30;;;;;;;7.40;nan;97352.00;5053223;28;20205;-71
2022/11/19 08:07:17;;;;;;;2.30;1.20;;;;;;;7.44;nan;97351.38;5053047;28;20205;-71
2022/11/19 08:09:44;;;;;;;1.20;1.10;;;;;;;7.46;nan;97359.09;5053268;28;20201;-71
2022/11/19 08:12:10;;;;;;;2.23;1.33;;;;;;;7.41;nan;97356.28;5053314;28;20222;-71
2022/11/19 08:14:37;;;;;;;3.17;1.50;;;;;;;7.39;nan;97356.50;5053497;28;20363;-71
2022/11/19 08:19:47;;;;;;;2.13;1.33;;;;;;;7.30;nan;97362.25;5053419;28;20216;-71
2022/11/19 08:22:13;;;;;;;2.60;1.30;;;;;;;7.30;nan;97364.91;5052502;28;20714;-71
2022/11/19 08:24:39;;;;;;;1.60;1.23;;;;;;;7.29;nan;97364.09;5052938;28;20207;-70
2022/11/19 08:27:06;;;;;;;1.97;1.23;;;;;;;7.31;nan;97369.16;5052839;28;20205;-71
2022/11/19 08:29:32;;;;;;;1.50;1.13;;;;;;;7.34;nan;97366.91;5052729;28;20232;-70
2022/11/19 08:31:59;;;;;;;2.30;1.33;;;;;;;7.33;nan;97360.00;5052828;28;20221;-71
2022/11/19 08:34:25;;;;;;;2.20;1.40;;;;;;;7.33;nan;97369.78;5052707;28;20712;-71
2022/11/19 08:36:51;;;;;;;1.80;1.30;;;;;;;7.35;nan;97373.00;5052326;28;20216;-71
2022/11/19 08:39:18;;;;;;;1.47;1.33;;;;;;;7.36;nan;97372.78;5053360;28;20207;-70
2022/11/19 08:44:28;;;;;;;1.13;1.07;;;;;;;7.50;nan;97384.88;5052585;28;20226;-71
2022/11/19 08:46:54;;;;;;;1.97;1.20;;;;;;;7.62;nan;97390.28;5052859;28;20208;-71
2022/11/19 08:49:21;;;;;;;2.87;1.30;;;;;;;7.69;nan;97388.41;5052473;28;20637;-71
2022/11/19 08:51:47;;;;;;;1.40;1.30;;;;;;;7.73;nan;97381.63;5052557;28;20222;-71
2022/11/19 08:54:14;;;;;;;1.33;1.23;;;;;;;7.76;nan;97389.13;5052692;28;20320;-71
2022/11/19 08:56:40;;;;;;;1.60;1.10;;;;;;;7.80;nan;97387.69;5052781;28;20212;-71
2022/11/19 08:59:07;;;;;;;1.30;1.20;;;;;;;7.87;nan;97389.25;5052615;28;20292;-71
2022/11/19 09:01:33;;;;;;;2.10;0.90;;;;;;;7.91;nan;97394.91;5052757;28;20234;-71
2022/11/19 09:04:00;;;;;;;0.73;0.73;;;;;;;8.01;nan;97389.94;5052457;28;20208;-71
2022/11/19 09:06:26;;;;;;;1.17;1.07;;;;;;;8.05;nan;97399.84;5052341;28;20209;-71
2022/11/19 09:08:52;;;;;;;1.50;0.87;;;;;;;8.03;nan;97393.97;5052515;28;20212;-70
2022/11/19 09:11:20;;;;;;;1.00;0.80;;;;;;;8.09;nan;97398.41;5056146;28;20224;-71
2022/11/19 09:13:46;;;;;;;2.00;0.90;;;;;;;8.12;nan;97403.25;5055720;28;20221;-71
2022/11/19 09:16:13;;;;;;;2.80;1.20;;;;;;;8.15;nan;97412.59;5055864;28;20557;-71
2022/11/19 09:18:41;;;;;;;2.27;1.00;;;;;;;8.21;nan;97407.28;5056077;28;20208;-71
2022/11/19 09:21:10;;;;;;;0.80;0.80;;;;;;;8.23;nan;97415.00;5055975;28;20229;-71
2022/11/19 09:23:36;;;;;;;2.77;1.00;;;;;;;8.34;nan;97415.09;5055930;28;20207;-71
2022/11/19 09:26:08;;;;;;;1.20;1.10;;;;;;;8.38;nan;97410.16;5055757;28;20206;-71
2022/11/19 09:28:35;;;;;;;1.73;0.93;;;;;;;8.44;nan;97415.38;5055425;28;20216;-71
2022/11/19 09:31:08;;;;;;;1.37;1.03;;;;;;;8.33;nan;97416.09;5055432;28;20236;-71
2022/11/19 09:33:37;;;;;;;1.37;0.80;;;;;;;8.32;nan;97421.63;5055550;28;20235;-71
2022/11/19 09:36:04;;;;;;;1.57;0.93;;;;;;;8.34;nan;97417.72;5055294;28;20209;-71
2022/11/19 09:38:33;;;;;;;1.33;0.87;;;;;;;8.30;nan;97421.03;5055601;28;20209;-71
2022/11/19 09:41:14;;;;;;;2.80;1.30;;;;;;;8.40;nan;97423.97;5055340;28;20233;-71
2022/11/19 09:44:05;;;;;;;1.37;0.97;;;;;;;8.37;nan;97437.66;5055583;28;20196;-71
2022/11/19 09:47:05;;;;;;;1.67;0.90;;;;;;;8.31;nan;97423.47;5055482;28;20233;-71
2022/11/19 09:49:51;;;;;;;1.00;0.90;;;;;;;8.29;nan;97430.78;5055064;28;20202;-71
2022/11/19 09:52:21;;;;;;;1.70;0.93;;;;;;;8.20;nan;97426.81;5055385;28;20232;-71
2022/11/19 09:54:51;;;;;;;1.23;1.00;;;;;;;8.20;nan;97434.75;5055328;28;20229;-71
2022/11/19 09:57:30;;;;;;;1.30;0.97;;;;;;;8.13;nan;97430.53;5055390;28;20280;-71
2022/11/19 10:00:00;;;;;;;1.10;0.90;;;;;;;8.11;nan;97422.78;5055118;28;20193;-71
2022/11/19 10:02:27;;;;;;;1.40;1.10;;;;;;;8.20;nan;97423.34;5054025;28;20237;-71
2022/11/19 10:04:54;;;;;;;2.30;1.30;;;;;;;8.11;nan;97430.75;5055082;28;20204;-71
2022/11/19 10:07:41;;;;;;;4.23;1.20;;;;;;;8.18;nan;97433.31;5055162;28;20209;-71
2022/11/19 10:10:37;;;;;;;2.23;1.10;;;;;;;8.23;nan;97436.19;5054727;28;20335;-71
2022/11/19 10:13:10;;;;;;;2.13;0.97;;;;;;;8.25;nan;97432.28;5054826;28;20296;-71
2022/11/19 10:16:27;;;;;;;0.83;0.80;;;;;;;8.24;nan;97428.00;5054672;28;20201;-71
2022/11/19 10:19:21;;;;;;;1.60;1.00;;;;;;;8.23;nan;97420.28;5037503;28;20209;-71
2022/11/19 10:22:07;;;;;;;1.73;0.77;;;;;;;8.29;nan;97424.72;5053432;28;20765;-70
2022/11/19 10:24:44;;;;;;;2.87;0.80;;;;;;;8.38;nan;97413.59;5054608;28;20205;-70
2022/11/19 10:28:10;;;;;;;1.47;0.67;;;;;;;8.43;nan;97423.53;5054645;28;20204;-70
2022/11/19 10:30:39;;;;;;;1.30;0.83;;;;;;;8.49;nan;97418.16;5009925;28;20600;-70
2022/11/19 10:33:18;;;;;;;1.10;0.80;;;;;;;8.58;nan;97418.66;5054415;28;20635;-70
2022/11/19 10:35:52;;;;;;;1.17;0.60;;;;;;;8.50;nan;97416.31;5055296;28;20185;-70
2022/11/19 10:38:35;;;;;;;1.13;0.90;;;;;;;8.71;nan;97415.88;5054546;28;20189;-70
2022/11/19 10:41:10;;;;;;;0.90;0.70;;;;;;;8.78;nan;97409.44;5054154;28;20221;-70
2022/11/19 10:43:48;;;;;;;1.70;0.83;;;;;;;8.80;nan;97422.47;5053254;28;20212;-70
2022/11/19 10:46:19;;;;;;;2.10;0.70;;;;;;;8.83;nan;97412.22;5054054;28;20232;-70
2022/11/19 10:48:54;;;;;;;0.70;0.70;;;;;;;8.79;nan;97411.06;5053192;28;20195;-70
2022/11/19 10:51:23;;;;;;;1.30;1.10;;;;;;;8.81;nan;97414.31;5054185;28;20247;-70
2022/11/19 10:53:53;;;;;;;2.00;1.07;;;;;;;8.88;nan;97422.19;5054156;28;20251;-70
2022/11/19 10:56:23;;;;;;;2.37;0.90;;;;;;;8.89;nan;97410.53;5053669;28;20213;-70
2022/11/19 10:59:22;;;;;;;4.10;1.10;;;;;;;8.94;nan;97410.69;5054220;28;20212;-70
2022/11/19 11:01:53;;;;;;;1.40;0.90;;;;;;;8.84;nan;97405.09;5053887;28;20225;-70
2022/11/19 11:04:26;;;;;;;1.80;0.97;;;;;;;8.90;nan;97407.66;5054056;28;20276;-70
2022/11/19 11:06:58;;;;;;;1.27;0.90;;;;;;;8.82;nan;97409.84;5054096;28;20190;-70
2022/11/19 11:09:38;;;;;;;1.70;1.30;;;;;;;8.95;nan;97404.34;5053988;28;20282;-70
2022/11/19 11:15:11;;;;;;;1.63;1.17;;;;;;;8.93;nan;97406.41;5053847;28;20233;-71
2022/11/19 11:17:38;;;;;;;1.23;1.13;;;;;;;8.86;nan;97406.50;5053747;28;20286;-70
2022/11/19 11:20:16;;;;;;;1.20;1.10;;;;;;;8.76;nan;97395.63;5053294;28;20658;-70
2022/11/19 11:22:45;;;;;;;2.13;1.27;;;;;;;8.75;nan;97399.31;5053687;28;20240;-70
2022/11/19 11:25:24;;;;;;;1.60;1.23;;;;;;;8.78;nan;97406.78;5053498;28;20203;-70
2022/11/19 11:28:15;;;;;;;1.07;1.00;;;;;;;8.87;nan;97399.38;5053467;28;20193;-70
2022/11/19 11:31:11;;;;;;;1.70;1.40;;;;;;;8.80;nan;97395.97;5053089;28;20335;-70
2022/11/19 11:33:41;;;;;;;2.97;1.23;;;;;;;8.84;nan;97391.84;5043724;28;20233;-70
2022/11/19 11:36:15;;;;;;;4.20;1.00;;;;;;;8.90;nan;97394.41;5053449;28;20200;-70
2022/11/19 11:38:48;;;;;;;2.73;1.10;;;;;;;8.77;nan;97393.75;5053160;28;20189;-70
2022/11/19 11:41:20;;;;;;;3.97;1.17;;;;;;;8.84;nan;97402.44;5053109;28;20323;-70
2022/11/19 11:44:03;;;;;;;2.67;1.23;;;;;;;8.84;nan;97402.44;5052817;28;20621;-70
2022/11/19 11:46:40;;;;;;;3.40;1.10;;;;;;;8.79;nan;97403.09;5053300;28;20332;-71
2022/11/19 11:49:27;;;;;;;2.87;1.00;;;;;;;8.76;nan;97402.75;5052929;28;20616;-70
2022/11/19 11:52:01;;;;;;;3.73;1.20;;;;;;;8.67;nan;97398.78;5052840;28;20688;-71
2022/11/19 11:54:27;;;;;;;2.70;0.97;;;;;;;8.64;nan;97396.59;5053208;28;20217;-71
2022/11/19 11:57:07;;;;;;;2.20;1.20;;;;;;;8.69;nan;97394.88;5053257;28;20227;-71
2022/11/19 11:59:33;;;;;;;1.33;0.90;;;;;;;8.73;nan;97400.56;5053288;28;20285;-71
2022/11/19 12:02:06;;;;;;;1.60;0.97;;;;;;;8.65;nan;97401.66;5053172;28;20225;-71
2022/11/19 12:04:33;;;;;;;1.93;1.17;;;;;;;8.58;nan;97395.66;5053048;28;20614;-71
2022/11/19 12:07:11;;;;;;;5.70;1.20;;;;;;;8.72;nan;97410.34;5053036;28;20212;-71
2022/11/19 12:10:07;;;;;;;1.90;0.93;;;;;;;8.57;nan;97406.47;5053077;28;20189;-71
2022/11/19 12:12:43;;;;;;;2.37;0.90;;;;;;;8.34;nan;97401.84;5053062;28;20280;-71
2022/11/19 12:15:26;;;;;;;2.73;1.23;;;;;;;8.24;nan;97403.38;5052815;28;20690;-71
2022/11/19 12:18:05;;;;;;;1.90;1.20;;;;;;;8.17;nan;97406.06;5053019;28;20198;-71
2022/11/19 12:20:47;;;;;;;2.70;1.20;;;;;;;8.11;nan;97400.81;5052485;28;20225;-71
2022/11/19 12:23:33;;;;;;;2.03;1.43;;;;;;;8.06;nan;97395.38;5052728;28;20217;-71
2022/11/19 12:26:30;;;;;;;2.17;1.33;;;;;;;8.06;nan;97401.47;5052997;28;20195;-71
2022/11/19 12:29:06;;;;;;;2.63;1.00;;;;;;;8.04;nan;97397.41;5052673;28;20285;-71
2022/11/19 12:31:45;;;;;;;1.87;1.10;;;;;;;8.18;nan;97391.78;5052658;28;20224;-71
2022/11/19 12:34:26;;;;;;;1.43;1.20;;;;;;;8.14;nan;97401.19;5052684;28;20209;-71
2022/11/19 12:37:14;;;;;;;1.50;1.30;;;;;;;8.17;nan;97405.22;5052385;28;20186;-71
2022/11/19 12:39:59;;;;;;;2.30;1.40;;;;;;;8.16;nan;97399.16;5052641;28;20556;-71
2022/11/19 12:42:37;;;;;;;2.27;1.37;;;;;;;8.20;nan;97400.34;5052658;28;20322;-71